Time;durP1;ratioP1;P1;durP2;ratioP2;P2;SDS_P1;SDS_P2;PMS_P1;PMS_P2;Temp;Humidity;BMP_temperature;BMP_pressure;BME280_temperature;BME280_humidity;BME280_pressure;Samples;Min_cycle;Max_cycle;Signal;HPM_P1;HPM_P2
2022/09/05 00:02:01;;;;;;;8.38;1.02;;;;;;;14.44;100.00;99328.22;4979820;28;20049;-83
2022/09/05 00:05:09;;;;;;;4.40;0.60;;;;;;;14.40;100.00;99337.59;5000651;28;20571;-82
2022/09/05 00:07:56;;;;;;;6.60;0.70;;;;;;;14.42;100.00;99337.38;4968759;28;20489;-84
2022/09/05 00:10:43;;;;;;;8.10;0.80;;;;;;;14.39;100.00;99339.44;4983327;28;20038;-82
2022/09/05 00:13:16;;;;;;;7.13;0.80;;;;;;;14.36;100.00;99339.00;4974731;28;20488;-85
2022/09/05 00:16:02;;;;;;;7.93;0.70;;;;;;;14.35;100.00;99338.16;5001825;28;20043;-80
2022/09/05 00:18:33;;;;;;;6.90;1.67;;;;;;;14.34;100.00;99341.84;5019718;28;20041;-83
2022/09/05 00:21:14;;;;;;;8.30;0.73;;;;;;;14.32;100.00;99351.84;4954019;28;20034;-80
2022/09/05 00:23:53;;;;;;;6.80;1.20;;;;;;;14.36;100.00;99354.94;4999522;28;20038;-81
2022/09/05 00:27:04;;;;;;;9.95;1.55;;;;;;;14.32;100.00;99345.72;5008232;28;20042;-81
2022/09/05 00:29:50;;;;;;;5.18;1.20;;;;;;;14.27;100.00;99354.28;4987395;28;20086;-81
2022/09/05 00:32:28;;;;;;;11.63;1.73;;;;;;;14.27;100.00;99355.09;5018424;28;20034;-80
2022/09/05 00:35:20;;;;;;;6.03;1.08;;;;;;;14.27;100.00;99349.78;4975286;28;20530;-82
2022/09/05 00:37:48;;;;;;;9.43;1.60;;;;;;;14.29;100.00;99346.09;4973114;28;20057;-81
2022/09/05 00:40:19;;;;;;;6.32;0.95;;;;;;;14.26;100.00;99347.31;4978586;28;20041;-83
2022/09/05 00:42:50;;;;;;;7.07;1.17;;;;;;;14.25;100.00;99351.00;5006333;28;20038;-80
2022/09/05 00:45:33;;;;;;;5.82;0.90;;;;;;;14.23;100.00;99359.19;4966819;28;20030;-81
2022/09/05 00:48:12;;;;;;;9.15;1.38;;;;;;;14.21;100.00;99358.53;4999805;28;20481;-83
2022/09/05 00:51:01;;;;;;;10.55;1.10;;;;;;;14.18;100.00;99368.72;4975748;28;20066;-86
2022/09/05 00:53:43;;;;;;;9.05;1.27;;;;;;;14.15;100.00;99367.28;4992817;28;20027;-83
2022/09/05 00:56:19;;;;;;;13.43;1.73;;;;;;;14.14;100.00;99370.97;4962138;28;20056;-86
2022/09/05 00:59:17;;;;;;;;;;;;;;;14.05;100.00;99377.47;5026605;28;20030;-83
2022/09/05 01:01:52;;;;;;;11.52;1.65;;;;;;;14.11;100.00;99385.47;4968279;28;19918;-87
2022/09/05 01:04:44;;;;;;;14.35;1.92;;;;;;;14.10;100.00;99391.78;4990026;28;20077;-87
2022/09/05 01:07:25;;;;;;;14.05;1.35;;;;;;;14.09;100.00;99407.94;4983390;28;20045;-85
2022/09/05 01:10:13;;;;;;;10.25;1.52;;;;;;;14.05;100.00;99417.31;5001014;28;20182;-84
2022/09/05 01:12:39;;;;;;;8.50;1.20;;;;;;;14.07;100.00;99421.41;5013074;28;20044;-86
2022/09/05 01:15:22;;;;;;;12.48;1.77;;;;;;;14.12;100.00;99420.84;4957614;28;20560;-86
2022/09/05 01:18:30;;;;;;;11.80;1.58;;;;;;;14.10;100.00;99428.16;5005655;28;20047;-85
2022/09/05 01:21:20;;;;;;;13.98;1.55;;;;;;;14.12;100.00;99434.13;4971426;28;20041;-81
2022/09/05 01:24:13;;;;;;;16.88;1.83;;;;;;;14.10;100.00;99425.50;5014460;28;20100;-82
2022/09/05 01:27:16;;;;;;;11.77;2.40;;;;;;;14.06;100.00;99425.09;4975798;28;20030;-88
2022/09/05 01:30:20;;;;;;;10.70;1.52;;;;;;;14.04;100.00;99443.06;5003671;28;20061;-84
2022/09/05 01:33:07;;;;;;;11.93;1.45;;;;;;;14.07;100.00;99455.97;4974285;28;20449;-82
2022/09/05 01:36:07;;;;;;;14.90;2.75;;;;;;;14.05;100.00;99457.16;4990551;28;20137;-88
2022/09/05 01:38:36;;;;;;;11.85;2.10;;;;;;;14.03;100.00;99454.69;5010948;28;20037;-88
2022/09/05 01:41:27;;;;;;;10.40;1.63;;;;;;;13.97;100.00;99458.09;4981674;28;20045;-89
2022/09/05 01:44:28;;;;;;;19.33;1.98;;;;;;;13.90;100.00;99463.38;5001523;28;20100;-87
2022/09/05 01:47:14;;;;;;;11.68;1.85;;;;;;;13.92;100.00;99479.94;4953352;28;20046;-87
2022/09/05 01:49:59;;;;;;;11.05;1.88;;;;;;;13.88;100.00;99468.06;4978512;28;20065;-87
2022/09/05 01:52:30;;;;;;;9.15;1.10;;;;;;;13.86;100.00;99476.22;4982592;28;20083;-88
2022/09/05 01:55:33;;;;;;;15.55;1.52;;;;;;;13.81;100.00;99473.28;4986544;28;20061;-88
2022/09/05 01:58:15;;;;;;;8.70;1.20;;;;;;;13.73;100.00;99474.25;4953688;28;20053;-88
2022/09/05 02:01:00;;;;;;;12.85;1.05;;;;;;;13.71;100.00;99486.88;5007916;28;20384;-86
2022/09/05 02:03:32;;;;;;;11.80;1.48;;;;;;;13.66;100.00;99491.13;4989171;28;20045;-86
2022/09/05 02:06:25;;;;;;;14.02;1.40;;;;;;;13.63;100.00;99494.97;4974563;28;20092;-87
2022/09/05 02:09:33;;;;;;;17.52;2.42;;;;;;;13.59;100.00;99496.34;4976070;28;20054;-86
2022/09/05 02:12:20;;;;;;;13.65;2.22;;;;;;;13.59;100.00;99507.81;4960035;28;20497;-85
2022/09/05 02:15:11;;;;;;;9.30;1.02;;;;;;;13.54;100.00;99506.72;4983337;28;20117;-85
2022/09/05 02:17:40;;;;;;;10.45;1.52;;;;;;;13.49;100.00;99513.38;5010588;28;20044;-88
2022/09/05 02:20:23;;;;;;;7.63;1.10;;;;;;;13.46;100.00;99508.44;4990101;28;20074;-86
2022/09/05 02:23:14;;;;;;;13.35;2.08;;;;;;;13.46;100.00;99520.88;4985401;28;20121;-88
2022/09/05 02:26:03;;;;;;;7.57;1.23;;;;;;;13.47;100.00;99520.69;4960685;28;20039;-88
2022/09/05 02:29:08;;;;;;;12.07;1.40;;;;;;;13.46;100.00;99528.84;4969629;28;20041;-88
2022/09/05 02:31:48;;;;;;;11.38;1.73;;;;;;;13.45;100.00;99530.69;4998388;28;20109;-88
2022/09/05 02:34:29;;;;;;;10.20;1.25;;;;;;;13.43;100.00;99526.56;5005349;28;20095;-89
2022/09/05 02:37:19;;;;;;;11.23;1.25;;;;;;;13.43;100.00;99548.63;4975194;28;20046;-89
2022/09/05 02:39:52;;;;;;;9.73;1.20;;;;;;;13.41;100.00;99545.34;5002859;28;20049;-86
2022/09/05 02:43:05;;;;;;;29.90;3.63;;;;;;;13.33;100.00;99553.41;4982498;28;20495;-88
2022/09/05 02:45:54;;;;;;;6.97;1.33;;;;;;;13.28;100.00;99546.00;4997142;28;20568;-88
2022/09/05 02:48:23;;;;;;;8.75;1.52;;;;;;;13.27;100.00;99562.91;4978535;28;20040;-87
2022/09/05 02:50:56;;;;;;;10.02;1.33;;;;;;;13.26;100.00;99569.25;4993455;28;20039;-86
2022/09/05 02:53:24;;;;;;;16.83;1.70;;;;;;;13.24;100.00;99572.09;4999239;28;20091;-89
2022/09/05 02:56:02;;;;;;;15.45;1.40;;;;;;;13.24;100.00;99564.13;5009295;28;20033;-88
2022/09/05 02:58:55;;;;;;;6.68;1.70;;;;;;;13.21;100.00;99571.63;4994344;28;20029;-88
2022/09/05 03:01:42;;;;;;;8.02;1.25;;;;;;;13.14;100.00;99575.00;4998206;28;20041;-88
2022/09/05 03:04:20;;;;;;;5.60;1.20;;;;;;;13.07;100.00;99570.63;5001159;28;20042;-88
2022/09/05 03:07:17;;;;;;;16.27;1.40;;;;;;;13.02;100.00;99572.00;4981086;28;20042;-87
2022/09/05 03:10:07;;;;;;;12.15;0.77;;;;;;;13.01;100.00;99575.63;4975112;28;20048;-84
2022/09/05 03:12:45;;;;;;;9.07;1.17;;;;;;;12.97;99.79;99579.66;4983281;28;20121;-87
2022/09/05 03:15:42;;;;;;;10.15;1.15;;;;;;;12.93;99.65;99577.56;4983448;28;20033;-87
2022/09/05 03:18:26;;;;;;;5.15;1.25;;;;;;;12.85;99.69;99589.06;5003617;28;20620;-87
2022/09/05 03:21:00;;;;;;;12.50;1.20;;;;;;;12.72;99.91;99582.56;4986929;28;20473;-85
2022/09/05 03:23:44;;;;;;;9.68;1.98;;;;;;;12.64;99.94;99595.88;4995205;28;20053;-87
2022/09/05 03:26:46;;;;;;;7.40;0.98;;;;;;;12.56;100.00;99609.19;4995274;28;20041;-86
2022/09/05 03:29:31;;;;;;;9.73;1.80;;;;;;;12.49;100.00;99609.09;4970439;28;20089;-87
2022/09/05 03:32:30;;;;;;;11.82;1.67;;;;;;;12.44;100.00;99614.91;4995300;28;20022;-88
2022/09/05 03:35:11;;;;;;;9.23;1.27;;;;;;;12.45;100.00;99607.81;5001798;28;20029;-87
2022/09/05 03:37:42;;;;;;;7.93;1.00;;;;;;;12.43;100.00;99604.50;4971272;28;20046;-85
2022/09/05 03:40:11;;;;;;;9.80;1.10;;;;;;;12.42;100.00;99606.34;5029543;28;20042;-86
2022/09/05 03:42:55;;;;;;;5.80;1.10;;;;;;;12.38;100.00;99608.50;4982318;28;20045;-87
2022/09/05 03:45:48;;;;;;;10.57;1.52;;;;;;;12.36;100.00;99615.81;4979787;28;20034;-88
2022/09/05 03:48:20;;;;;;;7.45;0.95;;;;;;;12.34;100.00;99627.59;4965388;28;20038;-88
2022/09/05 03:50:53;;;;;;;16.70;1.77;;;;;;;12.32;100.00;99638.38;5016536;28;20488;-85
2022/09/05 03:53:30;;;;;;;7.20;1.00;;;;;;;12.27;100.00;99633.59;4972439;28;20079;-88
2022/09/05 03:56:18;;;;;;;6.53;1.20;;;;;;;12.27;100.00;99633.59;4991550;28;20053;-86
2022/09/05 03:59:44;;;;;;;11.48;1.60;;;;;;;12.24;100.00;99635.75;4954703;28;20042;-84
2022/09/05 04:02:13;;;;;;;7.05;1.25;;;;;;;12.23;100.00;99629.63;4978142;28;20045;-85
2022/09/05 04:04:55;;;;;;;10.02;1.15;;;;;;;12.20;100.00;99621.22;4978082;28;20162;-87
2022/09/05 04:07:46;;;;;;;6.63;0.88;;;;;;;12.15;100.00;99617.25;4980917;28;20073;-87
2022/09/05 04:10:28;;;;;;;9.68;1.65;;;;;;;12.12;100.00;99620.25;4982517;28;20121;-84
2022/09/05 04:13:05;;;;;;;7.50;0.82;;;;;;;12.13;100.00;99629.03;4999215;28;20029;-86
2022/09/05 04:15:44;;;;;;;11.40;2.08;;;;;;;12.18;100.00;99636.47;4962022;28;20043;-88
2022/09/05 04:18:23;;;;;;;11.43;1.35;;;;;;;12.18;100.00;99645.25;5027777;28;20026;-89
2022/09/05 04:21:12;;;;;;;7.15;0.95;;;;;;;12.19;100.00;99648.72;4996281;28;20128;-86
2022/09/05 04:24:00;;;;;;;11.18;1.80;;;;;;;12.17;100.00;99656.81;4993856;28;20046;-86
2022/09/05 04:26:57;;;;;;;7.10;1.05;;;;;;;12.20;100.00;99650.38;4979915;28;20045;-90
2022/09/05 04:29:41;;;;;;;;;;;;;;;12.15;99.94;99662.31;5029492;28;20061;-88
2022/09/05 04:32:16;;;;;;;11.32;1.63;;;;;;;12.23;100.00;99669.38;5001119;28;19917;-88
2022/09/05 04:34:46;;;;;;;13.70;1.45;;;;;;;12.28;99.11;99671.50;4975137;28;20034;-90
2022/09/05 04:37:37;;;;;;;10.32;1.60;;;;;;;12.37;98.53;99675.78;5018873;28;20943;-89
2022/09/05 04:40:37;;;;;;;7.43;1.25;;;;;;;12.44;97.79;99669.78;4993152;28;20400;-90
2022/09/05 04:43:09;;;;;;;11.40;0.90;;;;;;;12.48;97.28;99671.06;4973079;28;20042;-90
2022/09/05 04:45:53;;;;;;;5.72;0.88;;;;;;;12.50;97.04;99672.53;4999682;28;20128;-90
2022/09/05 04:48:33;;;;;;;8.00;0.95;;;;;;;12.56;97.06;99668.34;4955477;28;20125;-89
2022/09/05 04:51:25;;;;;;;7.95;1.33;;;;;;;12.58;96.17;99668.97;5021517;28;20042;-89
2022/09/05 04:54:13;;;;;;;6.20;1.00;;;;;;;12.59;95.67;99675.94;5012834;28;20034;-89
2022/09/05 04:56:45;;;;;;;8.02;0.88;;;;;;;12.57;95.58;99677.13;4967914;28;20037;-89
2022/09/05 04:59:30;;;;;;;8.32;0.80;;;;;;;12.51;95.29;99684.78;4957239;28;20034;-89
2022/09/05 05:02:02;;;;;;;10.07;1.02;;;;;;;12.53;95.56;99684.63;4971607;28;20025;-90
2022/09/05 05:04:29;;;;;;;8.57;1.23;;;;;;;12.57;95.21;99679.75;4962959;28;20030;-89
2022/09/05 05:07:04;;;;;;;8.88;1.30;;;;;;;12.57;94.67;99680.59;4996234;28;20029;-89
2022/09/05 05:09:38;;;;;;;8.77;1.33;;;;;;;12.55;94.27;99672.00;4958952;28;20054;-88
2022/09/05 05:12:37;;;;;;;10.60;1.58;;;;;;;12.51;93.83;99676.84;5012285;28;20558;-88
2022/09/05 05:15:11;;;;;;;6.65;0.98;;;;;;;12.52;94.10;99686.44;4990776;28;20042;-88
2022/09/05 05:17:56;;;;;;;5.80;0.63;;;;;;;12.50;93.84;99685.78;5004295;28;20045;-89
2022/09/05 05:20:55;;;;;;;7.80;0.80;;;;;;;12.49;93.55;99689.44;4979973;28;20034;-89
2022/09/05 05:23:40;;;;;;;8.27;1.13;;;;;;;12.42;93.02;99700.91;4958090;28;20046;-88
2022/09/05 05:26:17;;;;;;;2.65;0.55;;;;;;;12.38;93.10;99711.03;5009832;28;20531;-89
2022/09/05 05:28:51;;;;;;;5.60;0.68;;;;;;;12.32;93.00;99709.09;4972644;28;20130;-88
2022/09/05 05:31:21;;;;;;;2.85;0.40;;;;;;;12.23;92.46;99714.41;4975395;28;20035;-87
2022/09/05 05:33:50;;;;;;;1.73;0.47;;;;;;;12.22;92.45;99714.59;4986931;28;20046;-87
2022/09/05 05:36:25;;;;;;;6.57;0.95;;;;;;;12.17;92.02;99717.75;4999272;28;20030;-85
2022/09/05 05:39:12;;;;;;;7.15;0.98;;;;;;;11.97;92.09;99717.31;4967819;28;20099;-84
2022/09/05 05:41:47;;;;;;;6.32;0.90;;;;;;;11.78;93.33;99722.84;4966478;28;20069;-83
2022/09/05 05:44:37;;;;;;;10.10;1.30;;;;;;;11.65;94.26;99718.09;5018998;28;20407;-85
2022/09/05 05:47:05;;;;;;;7.55;0.63;;;;;;;11.63;95.13;99716.59;5009702;28;20447;-87
2022/09/05 05:49:49;;;;;;;6.57;0.90;;;;;;;11.62;95.37;99713.13;4995180;28;20026;-85
2022/09/05 05:52:48;;;;;;;12.15;1.02;;;;;;;11.61;95.18;99724.69;4973547;28;20062;-85
2022/09/05 05:55:36;;;;;;;9.57;0.90;;;;;;;11.58;95.86;99722.41;4968822;28;20158;-85
2022/09/05 05:58:44;;;;;;;13.50;1.30;;;;;;;11.52;96.21;99731.84;5006063;28;20034;-86
2022/09/05 06:01:35;;;;;;;11.38;1.55;;;;;;;11.52;96.54;99742.44;5010142;28;20463;-86
2022/09/05 06:04:35;;;;;;;9.82;1.23;;;;;;;11.58;96.54;99742.75;4957297;28;20124;-86
2022/09/05 06:07:26;;;;;;;7.80;1.40;;;;;;;11.62;96.98;99747.56;5019236;28;20041;-86
2022/09/05 06:10:22;;;;;;;9.98;1.00;;;;;;;11.67;96.50;99747.03;4969423;28;20460;-84
2022/09/05 06:13:12;;;;;;;8.32;2.00;;;;;;;11.66;96.78;99743.56;4972723;28;20045;-84
2022/09/05 06:15:38;;;;;;;6.10;1.10;;;;;;;11.65;97.16;99746.38;5027206;28;20029;-84
2022/09/05 06:18:44;;;;;;;5.97;1.30;;;;;;;11.60;97.29;99751.34;5013850;28;20488;-81
2022/09/05 06:21:32;;;;;;;5.72;1.00;;;;;;;11.57;98.61;99756.97;4991518;28;20148;-81
2022/09/05 06:24:15;;;;;;;9.20;1.17;;;;;;;11.59;99.72;99758.47;4972326;28;20041;-80
2022/09/05 06:26:50;;;;;;;8.13;0.95;;;;;;;11.60;99.95;99764.56;4990546;28;20452;-80
2022/09/05 06:29:57;;;;;;;10.50;1.35;;;;;;;11.62;100.00;99760.78;5006119;28;20037;-81
2022/09/05 06:32:42;;;;;;;;;;;;;;;11.64;100.00;99758.78;4977048;28;20046;-83
2022/09/05 06:35:29;;;;;;;3.42;0.70;;;;;;;11.83;100.00;99767.38;5008051;28;19913;-83
2022/09/05 06:38:23;;;;;;;11.27;1.27;;;;;;;11.96;100.00;99774.75;5015852;28;20487;-86
2022/09/05 06:41:20;;;;;;;15.73;1.65;;;;;;;12.17;100.00;99775.22;4976689;28;20056;-86
2022/09/05 06:44:04;;;;;;;;;;;;;;;12.25;100.00;99777.84;4986185;28;20049;-89
2022/09/05 06:46:34;;;;;;;6.45;0.93;;;;;;;12.38;99.56;99783.41;5000917;28;19921;-89
2022/09/05 06:49:16;;;;;;;14.38;1.02;;;;;;;12.37;98.96;99784.44;4972979;28;20042;-89
2022/09/05 06:52:01;;;;;;;5.00;0.95;;;;;;;12.32;99.60;99783.28;4960261;28;20030;-88
2022/09/05 06:54:45;;;;;;;5.00;0.67;;;;;;;12.31;100.00;99787.75;4973332;28;20101;-89
2022/09/05 06:57:39;;;;;;;8.52;0.95;;;;;;;12.46;100.00;99789.66;4968730;28;20480;-86
2022/09/05 07:00:21;;;;;;;10.35;1.23;;;;;;;12.65;100.00;99783.13;4974667;28;20042;-84
2022/09/05 07:03:12;;;;;;;9.15;0.80;;;;;;;12.77;100.00;99786.22;4989762;28;20034;-82
2022/09/05 07:05:55;;;;;;;12.88;1.48;;;;;;;12.86;99.63;99785.16;4978327;28;20045;-85
2022/09/05 07:08:57;;;;;;;15.32;1.88;;;;;;;12.98;99.66;99774.94;4988376;28;21296;-84
2022/09/05 07:11:32;;;;;;;13.07;1.65;;;;;;;13.08;99.92;99774.72;4971923;28;20050;-85
2022/09/05 07:14:17;;;;;;;13.45;1.17;;;;;;;13.27;99.80;99780.53;4971183;28;20034;-86
2022/09/05 07:16:48;;;;;;;8.32;1.23;;;;;;;13.44;100.00;99775.09;5009646;28;20045;-82
2022/09/05 07:19:26;;;;;;;14.55;2.28;;;;;;;13.60;99.84;99774.97;4990708;28;20041;-81
2022/09/05 07:22:15;;;;;;;14.82;1.65;;;;;;;13.74;99.55;99772.53;4986537;28;20485;-85
2022/09/05 07:24:45;;;;;;;11.35;1.15;;;;;;;13.90;99.13;99774.19;5005870;28;20056;-81
2022/09/05 07:27:25;;;;;;;6.75;1.00;;;;;;;14.06;98.76;99777.66;4991286;28;20108;-82
2022/09/05 07:29:55;;;;;;;9.48;1.45;;;;;;;14.13;97.99;99775.91;4963108;28;20085;-84
2022/09/05 07:32:23;;;;;;;12.40;1.73;;;;;;;14.15;97.05;99776.56;4988301;28;20031;-83
2022/09/05 07:34:51;;;;;;;10.75;1.30;;;;;;;14.23;97.15;99773.81;5010963;28;20041;-84
2022/09/05 07:37:22;;;;;;;11.30;1.20;;;;;;;14.23;96.90;99779.13;4992479;28;20555;-82
2022/09/05 07:39:58;;;;;;;11.57;2.30;;;;;;;14.29;96.79;99782.84;5010518;28;20029;-85
2022/09/05 07:42:35;;;;;;;9.75;1.30;;;;;;;14.31;96.83;99780.00;4993584;28;20121;-82
2022/09/05 07:45:19;;;;;;;11.35;1.60;;;;;;;14.36;96.52;99782.94;5005448;28;20041;-85
2022/09/05 07:48:11;;;;;;;14.18;1.70;;;;;;;14.37;96.12;99782.75;4970038;28;20398;-83
2022/09/05 07:50:56;;;;;;;10.70;1.77;;;;;;;14.40;95.38;99784.22;4968893;28;20104;-82
2022/09/05 07:53:24;;;;;;;7.97;1.50;;;;;;;14.40;95.12;99792.19;4964058;28;20521;-84
2022/09/05 07:55:57;;;;;;;7.47;1.25;;;;;;;14.49;95.15;99798.25;4970391;28;20042;-85
2022/09/05 07:58:49;;;;;;;11.48;1.67;;;;;;;14.54;94.62;99787.84;4982676;28;20033;-80
2022/09/05 08:01:18;;;;;;;12.55;1.48;;;;;;;14.61;94.53;99788.75;4973552;28;20034;-82
2022/09/05 08:03:44;;;;;;;9.63;1.30;;;;;;;14.69;94.37;99787.00;4990560;28;20041;-82
2022/09/05 08:06:20;;;;;;;11.07;0.98;;;;;;;14.73;93.58;99782.97;4987841;28;20117;-84
2022/09/05 08:09:02;;;;;;;10.38;1.30;;;;;;;14.79;93.24;99784.91;4988847;28;20046;-82
2022/09/05 08:11:31;;;;;;;16.85;1.75;;;;;;;14.87;93.24;99790.06;4983111;28;20042;-83
2022/09/05 08:14:05;;;;;;;18.25;1.85;;;;;;;14.93;92.91;99788.50;4956234;28;20030;-82
2022/09/05 08:16:33;;;;;;;8.43;1.45;;;;;;;14.96;92.67;99782.81;4965186;28;20049;-85
2022/09/05 08:19:20;;;;;;;10.23;1.40;;;;;;;15.04;92.24;99781.84;4996363;28;20063;-83
2022/09/05 08:21:50;;;;;;;14.23;1.25;;;;;;;15.15;92.43;99777.03;4977101;28;20046;-87
2022/09/05 08:24:25;;;;;;;8.98;1.50;;;;;;;15.16;90.98;99778.69;4990245;28;20038;-84
2022/09/05 08:27:11;;;;;;;10.35;1.40;;;;;;;15.21;90.96;99781.63;4991486;28;20042;-84
2022/09/05 08:29:41;;;;;;;8.57;1.52;;;;;;;15.30;90.36;99768.97;4969644;28;20058;-81
2022/09/05 08:32:30;;;;;;;8.05;1.02;;;;;;;15.41;90.10;99771.13;4987133;28;20040;-86
2022/09/05 08:35:05;;;;;;;7.47;1.00;;;;;;;15.53;89.59;99773.25;4991912;28;20128;-83
2022/09/05 08:37:32;;;;;;;7.60;1.37;;;;;;;15.59;89.09;99770.63;4975549;28;20103;-84
2022/09/05 08:40:05;;;;;;;9.50;1.05;;;;;;;15.67;87.94;99752.84;4992950;28;21043;-82
2022/09/05 08:42:40;;;;;;;10.23;1.25;;;;;;;15.68;87.23;99754.50;4961884;28;20030;-82
2022/09/05 08:45:16;;;;;;;9.82;1.02;;;;;;;15.72;86.47;99753.06;4969531;28;20037;-84
2022/09/05 08:48:01;;;;;;;14.52;1.33;;;;;;;15.78;85.92;99752.31;4986654;28;20036;-85
2022/09/05 08:50:38;;;;;;;10.68;1.27;;;;;;;15.80;85.84;99752.94;5008339;28;20037;-82
2022/09/05 08:53:34;;;;;;;9.15;1.20;;;;;;;15.85;84.87;99752.34;4993816;28;20103;-83
2022/09/05 08:56:12;;;;;;;7.45;1.05;;;;;;;15.88;85.01;99755.44;4970143;28;20046;-82
2022/09/05 08:58:51;;;;;;;6.53;1.25;;;;;;;15.92;83.76;99747.06;4995850;28;20040;-82
2022/09/05 09:01:57;;;;;;;9.82;1.00;;;;;;;15.92;82.88;99747.06;4942756;28;20388;-84
2022/09/05 09:04:34;;;;;;;10.38;0.95;;;;;;;15.90;83.82;99743.75;5020014;28;20034;-83
2022/09/05 09:07:39;;;;;;;6.82;0.90;;;;;;;15.98;82.38;99747.13;5009063;28;20038;-81
2022/09/05 09:10:24;;;;;;;6.82;1.98;;;;;;;16.03;83.17;99754.53;4955715;28;20100;-82
2022/09/05 09:13:14;;;;;;;11.23;1.27;;;;;;;16.14;83.36;99753.13;4972240;28;20065;-81
2022/09/05 09:15:50;;;;;;;8.85;1.25;;;;;;;16.24;82.42;99736.78;4991059;28;20553;-84
2022/09/05 09:18:18;;;;;;;7.88;1.00;;;;;;;16.26;82.36;99728.56;5004289;28;20041;-82
2022/09/05 09:20:58;;;;;;;6.97;1.40;;;;;;;16.31;81.72;99736.81;4985920;28;20037;-80
2022/09/05 09:23:45;;;;;;;8.82;1.35;;;;;;;16.39;81.56;99731.28;4987307;28;20049;-83
2022/09/05 09:26:18;;;;;;;12.93;1.92;;;;;;;16.47;81.40;99723.09;5015021;28;20042;-81
2022/09/05 09:29:03;;;;;;;7.13;1.25;;;;;;;16.61;80.76;99726.63;4970835;28;20046;-82
2022/09/05 09:31:59;;;;;;;9.68;1.50;;;;;;;16.71;80.17;99718.22;4974605;28;20073;-81
2022/09/05 09:34:25;;;;;;;10.77;1.25;;;;;;;16.79;80.68;99717.19;4995778;28;20052;-83
2022/09/05 09:36:53;;;;;;;11.20;2.00;;;;;;;16.85;79.76;99700.38;4990564;28;20034;-81
2022/09/05 09:39:45;;;;;;;9.32;1.10;;;;;;;16.94;78.80;99710.84;4989870;28;20037;-81
2022/09/05 09:42:46;;;;;;;16.25;1.40;;;;;;;16.91;76.49;99700.59;4974205;28;20041;-81
2022/09/05 09:45:14;;;;;;;10.93;1.20;;;;;;;16.97;76.89;99695.25;5003456;28;20049;-82
2022/09/05 09:48:09;;;;;;;10.57;1.48;;;;;;;16.98;76.04;99710.25;4986882;28;20038;-80
2022/09/05 09:51:05;;;;;;;8.82;1.20;;;;;;;16.97;76.12;99700.59;4996396;28;20041;-81
2022/09/05 09:53:58;;;;;;;10.93;1.30;;;;;;;17.04;74.67;99707.78;4990867;28;20059;-81
2022/09/05 09:57:08;;;;;;;13.93;1.45;;;;;;;17.04;73.73;99707.78;4970337;28;20038;-81
2022/09/05 09:59:56;;;;;;;8.77;1.33;;;;;;;17.14;74.40;99700.19;5005328;28;20040;-80
2022/09/05 10:02:35;;;;;;;11.25;1.45;;;;;;;17.15;74.74;99719.72;4984270;28;20034;-81
2022/09/05 10:05:38;;;;;;;7.05;1.15;;;;;;;17.24;73.72;99702.44;4973493;28;20045;-82
2022/09/05 10:08:22;;;;;;;10.43;2.70;;;;;;;17.34;74.24;99697.50;4969224;28;20053;-81
2022/09/05 10:10:57;;;;;;;9.65;1.33;;;;;;;17.31;74.43;99699.78;4989757;28;20044;-81
2022/09/05 10:14:01;;;;;;;7.55;1.00;;;;;;;17.29;71.58;99691.16;5005507;28;20038;-82
2022/09/05 10:16:47;;;;;;;9.77;1.35;;;;;;;17.32;72.72;99691.56;4936742;28;20069;-84
2022/09/05 10:19:58;;;;;;;7.28;1.23;;;;;;;17.36;72.22;99676.75;4955755;28;20044;-81
2022/09/05 10:22:50;;;;;;;5.22;1.15;;;;;;;17.56;71.63;99672.41;4958696;28;20125;-81
2022/09/05 10:25:37;;;;;;;6.15;0.77;;;;;;;17.61;71.52;99678.75;5021473;28;20045;-81
2022/09/05 10:28:32;;;;;;;9.30;1.02;;;;;;;17.65;70.65;99649.75;5023971;28;20041;-80
2022/09/05 10:31:07;;;;;;;10.02;1.48;;;;;;;17.80;70.42;99640.66;4976085;28;20058;-81
2022/09/05 10:33:38;;;;;;;7.05;1.13;;;;;;;17.93;70.99;99656.63;4997442;28;20033;-81
2022/09/05 10:36:21;;;;;;;11.07;1.35;;;;;;;18.00;69.40;99648.59;4987032;28;20125;-81
2022/09/05 10:39:18;;;;;;;10.07;1.35;;;;;;;17.96;70.26;99652.72;5013873;28;20022;-80
2022/09/05 10:41:49;;;;;;;9.70;1.10;;;;;;;17.87;70.35;99662.81;4964246;28;20053;-83
2022/09/05 10:44:39;;;;;;;9.02;1.10;;;;;;;17.78;69.18;99648.88;5010983;28;20030;-80
2022/09/05 10:47:30;;;;;;;10.68;1.85;;;;;;;17.61;69.51;99659.22;5002050;28;20041;-81
2022/09/05 10:50:02;;;;;;;8.23;1.75;;;;;;;17.45;71.51;99663.19;4975679;28;20488;-82
2022/09/05 10:52:30;;;;;;;11.00;1.30;;;;;;;17.40;72.74;99669.16;4976791;28;20034;-79
2022/09/05 10:55:29;;;;;;;9.70;1.27;;;;;;;17.64;72.96;99655.31;4986857;28;20037;-79
2022/09/05 10:58:16;;;;;;;10.85;2.05;;;;;;;17.82;72.38;99660.78;4947343;28;20136;-82
2022/09/05 11:00:41;;;;;;;8.95;1.60;;;;;;;17.79;72.25;99663.09;4988464;28;20058;-80
2022/09/05 11:03:17;;;;;;;10.68;1.73;;;;;;;17.71;71.82;99664.16;4970850;28;20133;-79
2022/09/05 11:05:56;;;;;;;15.32;2.47;;;;;;;17.80;71.43;99659.38;4996149;28;20439;-80
2022/09/05 11:08:57;;;;;;;16.40;2.58;;;;;;;17.87;71.58;99659.34;4995020;28;20042;-80
2022/09/05 11:11:25;;;;;;;14.60;2.03;;;;;;;18.15;71.03;99636.81;4980887;28;20042;-80
2022/09/05 11:13:57;;;;;;;8.07;1.30;;;;;;;18.14;69.57;99648.56;5020049;28;20038;-82
2022/09/05 11:16:48;;;;;;;8.75;1.80;;;;;;;18.02;67.37;99646.53;5012165;28;20030;-79
2022/09/05 11:19:38;;;;;;;8.57;1.05;;;;;;;18.04;67.92;99630.25;5006321;28;20037;-81
2022/09/05 11:22:08;;;;;;;12.38;1.77;;;;;;;18.23;68.80;99645.38;4979698;28;20048;-81
2022/09/05 11:24:56;;;;;;;6.90;1.08;;;;;;;18.37;66.88;99631.13;4957082;28;20923;-81
2022/09/05 11:27:39;;;;;;;18.17;1.98;;;;;;;18.23;67.56;99633.91;4999579;28;20029;-80
2022/09/05 11:30:15;;;;;;;10.73;1.52;;;;;;;18.18;67.04;99625.69;4980415;28;20029;-81
2022/09/05 11:33:10;;;;;;;12.13;2.00;;;;;;;18.05;65.95;99624.69;5011468;28;20026;-80
2022/09/05 11:35:45;;;;;;;11.10;1.65;;;;;;;18.17;65.83;99624.84;4978047;28;20034;-81
2022/09/05 11:38:13;;;;;;;;;;;;;;;18.17;65.57;99619.50;4990374;28;20030;-79
2022/09/05 11:41:03;;;;;;;8.25;1.23;;;;;;;18.00;63.47;99621.84;5012913;28;19913;-78
2022/09/05 11:43:51;;;;;;;8.95;1.50;;;;;;;18.10;64.08;99614.19;5015151;28;20046;-82
2022/09/05 11:46:45;;;;;;;8.60;1.65;;;;;;;18.21;64.08;99617.22;5019669;28;20026;-81
2022/09/05 11:50:09;;;;;;;10.13;1.92;;;;;;;18.19;63.66;99595.22;5013334;28;20374;-79
2022/09/05 11:53:07;;;;;;;10.35;1.55;;;;;;;18.04;63.59;99592.84;4970774;28;20464;-81
2022/09/05 11:56:10;;;;;;;12.25;1.60;;;;;;;18.00;64.07;99588.97;4968195;28;20031;-82
2022/09/05 11:59:03;;;;;;;9.20;1.85;;;;;;;18.07;64.36;99601.25;4989020;28;20392;-79
2022/09/05 12:01:42;;;;;;;11.35;1.50;;;;;;;18.04;64.44;99595.50;4914635;28;20056;-80
2022/09/05 12:04:17;;;;;;;13.77;1.90;;;;;;;17.99;64.36;99606.84;4966167;28;20144;-79
2022/09/05 12:06:57;;;;;;;8.87;1.60;;;;;;;18.02;64.23;99598.41;4999542;28;20033;-79
2022/09/05 12:09:51;;;;;;;11.88;1.80;;;;;;;17.94;63.41;99593.28;4984861;28;20042;-79
2022/09/05 12:12:35;;;;;;;10.05;1.38;;;;;;;17.88;64.56;99596.81;5009520;28;20507;-81
2022/09/05 12:15:09;;;;;;;10.55;1.45;;;;;;;17.83;65.14;99587.59;4964845;28;20385;-80
2022/09/05 12:18:08;;;;;;;8.73;1.85;;;;;;;17.82;65.11;99593.16;4982678;28;20543;-83
2022/09/05 12:20:52;;;;;;;8.55;1.50;;;;;;;17.84;65.17;99583.06;5006446;28;20544;-79
2022/09/05 12:23:39;;;;;;;13.13;1.35;;;;;;;17.82;66.34;99556.53;4970821;28;20046;-80
2022/09/05 12:26:31;;;;;;;12.18;1.90;;;;;;;17.84;67.81;99541.13;5007169;28;20033;-82
2022/09/05 12:29:02;;;;;;;12.13;1.77;;;;;;;18.04;67.87;99526.81;4981715;28;20110;-82
2022/09/05 12:31:37;;;;;;;14.43;1.58;;;;;;;18.10;68.67;99519.78;4969800;28;20027;-80
2022/09/05 12:34:09;;;;;;;13.40;2.53;;;;;;;18.16;69.23;99507.41;5018055;28;20042;-79
2022/09/05 12:36:43;;;;;;;10.60;2.05;;;;;;;18.30;70.12;99505.47;5006438;28;20100;-81
2022/09/05 12:39:30;;;;;;;11.18;1.83;;;;;;;18.66;70.37;99492.38;4993154;28;20553;-81
2022/09/05 12:42:06;;;;;;;17.05;2.28;;;;;;;18.81;69.44;99489.31;4978646;28;20046;-82
2022/09/05 12:45:11;;;;;;;12.18;2.05;;;;;;;18.50;69.69;99491.06;4966295;28;20030;-82